sensor_id;sensor_type;location;lat;lon;timestamp;P1;durP1;ratioP1;P2;durP2;ratioP2
55364;SDS011;41245;45.384;20.390;2023-07-13T00:01:19;15.90;;;5.65;;
55364;SDS011;41245;45.384;20.390;2023-07-13T00:03:45;15.43;;;6.40;;
55364;SDS011;41245;45.384;20.390;2023-07-13T00:06:12;19.58;;;6.30;;
55364;SDS011;41245;45.384;20.390;2023-07-13T00:08:38;25.70;;;8.27;;
55364;SDS011;41245;45.384;20.390;2023-07-13T00:11:04;17.77;;;6.28;;
55364;SDS011;41245;45.384;20.390;2023-07-13T00:13:31;29.40;;;7.18;;
55364;SDS011;41245;45.384;20.390;2023-07-13T00:15:58;25.08;;;6.55;;
55364;SDS011;41245;45.384;20.390;2023-07-13T00:18:25;20.15;;;5.80;;
55364;SDS011;41245;45.384;20.390;2023-07-13T00:20:55;23.25;;;5.75;;
55364;SDS011;41245;45.384;20.390;2023-07-13T00:23:21;23.67;;;6.07;;
55364;SDS011;41245;45.384;20.390;2023-07-13T00:25:47;19.33;;;5.90;;
55364;SDS011;41245;45.384;20.390;2023-07-13T00:28:15;23.00;;;7.68;;
55364;SDS011;41245;45.384;20.390;2023-07-13T00:30:41;17.45;;;5.68;;
55364;SDS011;41245;45.384;20.390;2023-07-13T00:33:08;19.65;;;7.25;;
55364;SDS011;41245;45.384;20.390;2023-07-13T00:35:34;26.40;;;6.20;;
55364;SDS011;41245;45.384;20.390;2023-07-13T00:38:01;19.00;;;8.10;;
55364;SDS011;41245;45.384;20.390;2023-07-13T00:40:27;20.52;;;5.55;;
55364;SDS011;41245;45.384;20.390;2023-07-13T00:42:53;20.17;;;7.32;;
55364;SDS011;41245;45.384;20.390;2023-07-13T00:47:45;19.17;;;6.72;;
55364;SDS011;41245;45.384;20.390;2023-07-13T00:50:12;28.52;;;6.53;;
55364;SDS011;41245;45.384;20.390;2023-07-13T00:52:41;22.85;;;5.55;;
55364;SDS011;41245;45.384;20.390;2023-07-13T00:55:09;31.63;;;7.90;;
55364;SDS011;41245;45.384;20.390;2023-07-13T00:57:36;16.55;;;5.88;;
55364;SDS011;41245;45.384;20.390;2023-07-13T01:00:04;17.40;;;6.63;;
55364;SDS011;41245;45.384;20.390;2023-07-13T01:02:32;18.85;;;6.80;;
55364;SDS011;41245;45.384;20.390;2023-07-13T01:04:58;22.77;;;6.93;;
55364;SDS011;41245;45.384;20.390;2023-07-13T01:07:24;21.33;;;7.05;;
55364;SDS011;41245;45.384;20.390;2023-07-13T01:09:50;24.75;;;6.55;;
55364;SDS011;41245;45.384;20.390;2023-07-13T01:12:17;25.40;;;7.03;;
55364;SDS011;41245;45.384;20.390;2023-07-13T01:14:43;15.02;;;7.10;;
55364;SDS011;41245;45.384;20.390;2023-07-13T01:17:09;24.00;;;7.22;;
55364;SDS011;41245;45.384;20.390;2023-07-13T01:19:38;24.52;;;7.32;;
55364;SDS011;41245;45.384;20.390;2023-07-13T01:22:05;22.60;;;6.72;;
55364;SDS011;41245;45.384;20.390;2023-07-13T01:24:34;22.00;;;8.00;;
55364;SDS011;41245;45.384;20.390;2023-07-13T01:27:00;20.73;;;7.45;;
55364;SDS011;41245;45.384;20.390;2023-07-13T01:29:26;23.00;;;7.55;;
55364;SDS011;41245;45.384;20.390;2023-07-13T01:31:52;17.35;;;7.05;;
55364;SDS011;41245;45.384;20.390;2023-07-13T01:34:18;19.77;;;6.75;;
55364;SDS011;41245;45.384;20.390;2023-07-13T01:36:44;15.85;;;5.97;;
55364;SDS011;41245;45.384;20.390;2023-07-13T01:39:10;19.05;;;6.53;;
55364;SDS011;41245;45.384;20.390;2023-07-13T01:41:36;16.42;;;6.30;;
55364;SDS011;41245;45.384;20.390;2023-07-13T01:44:02;15.70;;;6.00;;
55364;SDS011;41245;45.384;20.390;2023-07-13T01:46:28;20.05;;;5.72;;
55364;SDS011;41245;45.384;20.390;2023-07-13T01:48:54;14.68;;;6.90;;
55364;SDS011;41245;45.384;20.390;2023-07-13T01:51:20;16.92;;;6.32;;
55364;SDS011;41245;45.384;20.390;2023-07-13T01:53:46;19.67;;;6.78;;
55364;SDS011;41245;45.384;20.390;2023-07-13T01:56:12;15.43;;;6.63;;
55364;SDS011;41245;45.384;20.390;2023-07-13T01:58:39;18.73;;;6.85;;
55364;SDS011;41245;45.384;20.390;2023-07-13T02:01:05;15.55;;;7.13;;
55364;SDS011;41245;45.384;20.390;2023-07-13T02:03:31;22.10;;;8.38;;
55364;SDS011;41245;45.384;20.390;2023-07-13T02:05:57;27.15;;;7.40;;
55364;SDS011;41245;45.384;20.390;2023-07-13T02:08:23;24.02;;;7.20;;
55364;SDS011;41245;45.384;20.390;2023-07-13T02:10:49;23.98;;;7.35;;
55364;SDS011;41245;45.384;20.390;2023-07-13T02:13:15;19.33;;;6.97;;
55364;SDS011;41245;45.384;20.390;2023-07-13T02:15:41;17.45;;;6.97;;
55364;SDS011;41245;45.384;20.390;2023-07-13T02:18:07;22.25;;;7.93;;
55364;SDS011;41245;45.384;20.390;2023-07-13T02:20:33;24.35;;;7.18;;
55364;SDS011;41245;45.384;20.390;2023-07-13T02:22:59;18.85;;;7.13;;
55364;SDS011;41245;45.384;20.390;2023-07-13T02:25:25;17.45;;;7.18;;
55364;SDS011;41245;45.384;20.390;2023-07-13T02:27:52;18.73;;;8.68;;
55364;SDS011;41245;45.384;20.390;2023-07-13T02:30:18;19.92;;;7.15;;
55364;SDS011;41245;45.384;20.390;2023-07-13T02:32:44;15.07;;;7.50;;
55364;SDS011;41245;45.384;20.390;2023-07-13T02:35:10;22.08;;;7.88;;
55364;SDS011;41245;45.384;20.390;2023-07-13T02:37:36;26.70;;;6.90;;
55364;SDS011;41245;45.384;20.390;2023-07-13T02:40:02;17.42;;;8.15;;
55364;SDS011;41245;45.384;20.390;2023-07-13T02:42:33;21.05;;;7.70;;
55364;SDS011;41245;45.384;20.390;2023-07-13T02:44:59;20.90;;;8.13;;
55364;SDS011;41245;45.384;20.390;2023-07-13T02:47:25;14.98;;;7.38;;
55364;SDS011;41245;45.384;20.390;2023-07-13T02:49:52;24.38;;;7.75;;
55364;SDS011;41245;45.384;20.390;2023-07-13T02:52:18;17.92;;;7.55;;
55364;SDS011;41245;45.384;20.390;2023-07-13T02:54:44;29.63;;;7.72;;
55364;SDS011;41245;45.384;20.390;2023-07-13T02:57:10;16.20;;;7.38;;
55364;SDS011;41245;45.384;20.390;2023-07-13T02:59:36;16.33;;;7.30;;
55364;SDS011;41245;45.384;20.390;2023-07-13T03:02:02;27.40;;;7.32;;
55364;SDS011;41245;45.384;20.390;2023-07-13T03:04:28;24.30;;;7.78;;
55364;SDS011;41245;45.384;20.390;2023-07-13T03:06:54;27.63;;;7.28;;
55364;SDS011;41245;45.384;20.390;2023-07-13T03:09:23;15.65;;;6.60;;
55364;SDS011;41245;45.384;20.390;2023-07-13T03:11:49;18.23;;;6.85;;
55364;SDS011;41245;45.384;20.390;2023-07-13T03:14:15;17.52;;;6.60;;
55364;SDS011;41245;45.384;20.390;2023-07-13T03:16:41;24.65;;;7.20;;
55364;SDS011;41245;45.384;20.390;2023-07-13T03:19:07;27.67;;;8.18;;
55364;SDS011;41245;45.384;20.390;2023-07-13T03:21:34;12.88;;;6.18;;
55364;SDS011;41245;45.384;20.390;2023-07-13T03:24:00;21.73;;;7.18;;
55364;SDS011;41245;45.384;20.390;2023-07-13T03:26:26;20.77;;;6.90;;
55364;SDS011;41245;45.384;20.390;2023-07-13T03:28:52;19.10;;;7.53;;
55364;SDS011;41245;45.384;20.390;2023-07-13T03:31:19;19.27;;;7.60;;
55364;SDS011;41245;45.384;20.390;2023-07-13T03:33:46;28.42;;;6.68;;
55364;SDS011;41245;45.384;20.390;2023-07-13T03:36:14;24.55;;;7.90;;
55364;SDS011;41245;45.384;20.390;2023-07-13T03:38:44;21.48;;;7.10;;
55364;SDS011;41245;45.384;20.390;2023-07-13T03:41:11;17.58;;;7.07;;
55364;SDS011;41245;45.384;20.390;2023-07-13T03:43:37;17.23;;;7.35;;
55364;SDS011;41245;45.384;20.390;2023-07-13T03:46:03;24.05;;;8.02;;
55364;SDS011;41245;45.384;20.390;2023-07-13T03:48:29;21.05;;;7.18;;
55364;SDS011;41245;45.384;20.390;2023-07-13T03:50:55;17.92;;;7.22;;
55364;SDS011;41245;45.384;20.390;2023-07-13T03:53:21;29.80;;;7.82;;
55364;SDS011;41245;45.384;20.390;2023-07-13T03:55:47;32.63;;;8.10;;
55364;SDS011;41245;45.384;20.390;2023-07-13T03:58:28;18.52;;;7.57;;
55364;SDS011;41245;45.384;20.390;2023-07-13T04:00:54;17.33;;;7.32;;
55364;SDS011;41245;45.384;20.390;2023-07-13T04:03:20;26.83;;;7.57;;
55364;SDS011;41245;45.384;20.390;2023-07-13T04:05:47;28.90;;;8.15;;
55364;SDS011;41245;45.384;20.390;2023-07-13T04:08:13;20.90;;;7.38;;
55364;SDS011;41245;45.384;20.390;2023-07-13T04:10:39;31.23;;;8.63;;
55364;SDS011;41245;45.384;20.390;2023-07-13T04:13:05;27.42;;;9.10;;
55364;SDS011;41245;45.384;20.390;2023-07-13T04:15:31;21.38;;;8.50;;
55364;SDS011;41245;45.384;20.390;2023-07-13T04:17:58;18.42;;;7.45;;
55364;SDS011;41245;45.384;20.390;2023-07-13T04:20:24;19.38;;;7.97;;
55364;SDS011;41245;45.384;20.390;2023-07-13T04:22:51;23.40;;;8.27;;
55364;SDS011;41245;45.384;20.390;2023-07-13T04:25:18;14.95;;;8.35;;
55364;SDS011;41245;45.384;20.390;2023-07-13T04:27:44;25.73;;;8.65;;
55364;SDS011;41245;45.384;20.390;2023-07-13T04:30:10;21.98;;;7.78;;
55364;SDS011;41245;45.384;20.390;2023-07-13T04:32:36;20.15;;;7.45;;
55364;SDS011;41245;45.384;20.390;2023-07-13T04:35:02;26.23;;;8.25;;
55364;SDS011;41245;45.384;20.390;2023-07-13T04:37:29;21.98;;;8.15;;
55364;SDS011;41245;45.384;20.390;2023-07-13T04:39:55;16.58;;;8.15;;
55364;SDS011;41245;45.384;20.390;2023-07-13T04:42:22;21.42;;;9.15;;
55364;SDS011;41245;45.384;20.390;2023-07-13T04:44:48;18.83;;;8.93;;
55364;SDS011;41245;45.384;20.390;2023-07-13T04:47:15;24.10;;;8.20;;
55364;SDS011;41245;45.384;20.390;2023-07-13T04:49:41;23.88;;;8.38;;
55364;SDS011;41245;45.384;20.390;2023-07-13T04:52:07;18.50;;;8.38;;
55364;SDS011;41245;45.384;20.390;2023-07-13T04:54:33;18.85;;;8.88;;
55364;SDS011;41245;45.384;20.390;2023-07-13T04:56:59;17.63;;;8.85;;
55364;SDS011;41245;45.384;20.390;2023-07-13T04:59:25;20.60;;;8.40;;
55364;SDS011;41245;45.384;20.390;2023-07-13T05:01:52;15.90;;;8.52;;
55364;SDS011;41245;45.384;20.390;2023-07-13T05:04:18;18.23;;;8.80;;
55364;SDS011;41245;45.384;20.390;2023-07-13T05:06:44;27.55;;;8.80;;
55364;SDS011;41245;45.384;20.390;2023-07-13T05:09:10;20.83;;;8.52;;
55364;SDS011;41245;45.384;20.390;2023-07-13T05:11:37;20.60;;;9.38;;
55364;SDS011;41245;45.384;20.390;2023-07-13T05:14:04;25.83;;;9.85;;
55364;SDS011;41245;45.384;20.390;2023-07-13T05:16:30;28.05;;;10.60;;
55364;SDS011;41245;45.384;20.390;2023-07-13T05:18:57;28.48;;;9.15;;
55364;SDS011;41245;45.384;20.390;2023-07-13T05:21:23;30.70;;;9.80;;
55364;SDS011;41245;45.384;20.390;2023-07-13T05:23:49;26.27;;;10.45;;
55364;SDS011;41245;45.384;20.390;2023-07-13T05:26:15;18.20;;;10.23;;
55364;SDS011;41245;45.384;20.390;2023-07-13T05:28:41;20.15;;;9.88;;
55364;SDS011;41245;45.384;20.390;2023-07-13T05:31:08;22.88;;;10.10;;
55364;SDS011;41245;45.384;20.390;2023-07-13T05:33:34;16.95;;;10.75;;
55364;SDS011;41245;45.384;20.390;2023-07-13T05:36:00;21.77;;;9.10;;
55364;SDS011;41245;45.384;20.390;2023-07-13T05:38:27;22.52;;;9.82;;
55364;SDS011;41245;45.384;20.390;2023-07-13T05:40:54;22.33;;;9.88;;
55364;SDS011;41245;45.384;20.390;2023-07-13T05:43:20;24.02;;;10.10;;
55364;SDS011;41245;45.384;20.390;2023-07-13T05:45:46;18.42;;;9.55;;
55364;SDS011;41245;45.384;20.390;2023-07-13T05:48:12;26.08;;;9.73;;
55364;SDS011;41245;45.384;20.390;2023-07-13T05:50:38;19.63;;;9.25;;
55364;SDS011;41245;45.384;20.390;2023-07-13T05:53:05;20.42;;;9.68;;
55364;SDS011;41245;45.384;20.390;2023-07-13T05:55:31;29.13;;;8.65;;
55364;SDS011;41245;45.384;20.390;2023-07-13T05:57:57;29.33;;;9.52;;
55364;SDS011;41245;45.384;20.390;2023-07-13T06:00:23;25.23;;;9.07;;
55364;SDS011;41245;45.384;20.390;2023-07-13T06:02:49;20.60;;;9.65;;
55364;SDS011;41245;45.384;20.390;2023-07-13T06:05:16;24.02;;;8.32;;
55364;SDS011;41245;45.384;20.390;2023-07-13T06:07:42;30.10;;;8.70;;
55364;SDS011;41245;45.384;20.390;2023-07-13T06:10:08;26.00;;;9.65;;
55364;SDS011;41245;45.384;20.390;2023-07-13T06:12:34;17.90;;;7.80;;
55364;SDS011;41245;45.384;20.390;2023-07-13T06:15:00;15.23;;;8.15;;
55364;SDS011;41245;45.384;20.390;2023-07-13T06:17:26;14.60;;;7.78;;
55364;SDS011;41245;45.384;20.390;2023-07-13T06:19:52;27.08;;;11.60;;
55364;SDS011;41245;45.384;20.390;2023-07-13T06:22:18;24.50;;;7.55;;
55364;SDS011;41245;45.384;20.390;2023-07-13T06:24:44;23.55;;;8.55;;
55364;SDS011;41245;45.384;20.390;2023-07-13T06:27:11;26.55;;;8.55;;
55364;SDS011;41245;45.384;20.390;2023-07-13T06:29:37;23.98;;;7.40;;
55364;SDS011;41245;45.384;20.390;2023-07-13T06:32:03;12.77;;;6.93;;
55364;SDS011;41245;45.384;20.390;2023-07-13T06:34:29;12.45;;;7.25;;
55364;SDS011;41245;45.384;20.390;2023-07-13T06:36:55;9.52;;;6.60;;
55364;SDS011;41245;45.384;20.390;2023-07-13T06:39:21;10.75;;;5.88;;
55364;SDS011;41245;45.384;20.390;2023-07-13T06:41:47;27.05;;;7.63;;
55364;SDS011;41245;45.384;20.390;2023-07-13T06:44:13;23.45;;;9.43;;
55364;SDS011;41245;45.384;20.390;2023-07-13T06:46:39;21.38;;;8.55;;
55364;SDS011;41245;45.384;20.390;2023-07-13T06:49:05;27.42;;;10.93;;
55364;SDS011;41245;45.384;20.390;2023-07-13T06:51:31;29.73;;;12.35;;
55364;SDS011;41245;45.384;20.390;2023-07-13T06:53:57;30.40;;;11.45;;
55364;SDS011;41245;45.384;20.390;2023-07-13T06:56:23;31.45;;;11.82;;
55364;SDS011;41245;45.384;20.390;2023-07-13T06:58:49;25.55;;;11.85;;
55364;SDS011;41245;45.384;20.390;2023-07-13T07:01:15;35.15;;;14.43;;
55364;SDS011;41245;45.384;20.390;2023-07-13T07:03:41;35.63;;;15.20;;
55364;SDS011;41245;45.384;20.390;2023-07-13T07:06:12;24.90;;;11.88;;
55364;SDS011;41245;45.384;20.390;2023-07-13T07:08:40;26.75;;;11.27;;
55364;SDS011;41245;45.384;20.390;2023-07-13T07:11:08;22.80;;;8.95;;
55364;SDS011;41245;45.384;20.390;2023-07-13T07:13:34;19.00;;;8.55;;
55364;SDS011;41245;45.384;20.390;2023-07-13T07:16:00;19.25;;;7.88;;
55364;SDS011;41245;45.384;20.390;2023-07-13T07:18:26;17.88;;;6.72;;
55364;SDS011;41245;45.384;20.390;2023-07-13T07:20:52;23.42;;;7.13;;
55364;SDS011;41245;45.384;20.390;2023-07-13T07:23:18;19.27;;;6.57;;
55364;SDS011;41245;45.384;20.390;2023-07-13T07:25:44;22.55;;;7.47;;
55364;SDS011;41245;45.384;20.390;2023-07-13T07:28:12;23.73;;;7.18;;
55364;SDS011;41245;45.384;20.390;2023-07-13T07:30:41;27.60;;;7.75;;
55364;SDS011;41245;45.384;20.390;2023-07-13T07:33:08;23.30;;;6.93;;
55364;SDS011;41245;45.384;20.390;2023-07-13T07:35:34;19.77;;;7.20;;
55364;SDS011;41245;45.384;20.390;2023-07-13T07:38:00;19.42;;;6.95;;
55364;SDS011;41245;45.384;20.390;2023-07-13T07:40:26;15.90;;;5.97;;
55364;SDS011;41245;45.384;20.390;2023-07-13T07:42:52;28.73;;;6.75;;
55364;SDS011;41245;45.384;20.390;2023-07-13T07:45:19;23.38;;;6.95;;
55364;SDS011;41245;45.384;20.390;2023-07-13T07:47:45;25.15;;;6.70;;
55364;SDS011;41245;45.384;20.390;2023-07-13T07:50:11;29.30;;;7.03;;
55364;SDS011;41245;45.384;20.390;2023-07-13T07:52:37;13.38;;;5.97;;
55364;SDS011;41245;45.384;20.390;2023-07-13T07:55:07;16.77;;;5.90;;
55364;SDS011;41245;45.384;20.390;2023-07-13T07:57:33;18.40;;;6.15;;
55364;SDS011;41245;45.384;20.390;2023-07-13T07:59:59;17.55;;;6.22;;
55364;SDS011;41245;45.384;20.390;2023-07-13T08:02:25;22.95;;;7.95;;
55364;SDS011;41245;45.384;20.390;2023-07-13T08:04:51;19.08;;;6.07;;
55364;SDS011;41245;45.384;20.390;2023-07-13T08:07:18;20.75;;;5.57;;
55364;SDS011;41245;45.384;20.390;2023-07-13T08:09:44;33.33;;;7.35;;
55364;SDS011;41245;45.384;20.390;2023-07-13T08:12:11;25.65;;;6.15;;
55364;SDS011;41245;45.384;20.390;2023-07-13T08:14:37;23.90;;;7.40;;
55364;SDS011;41245;45.384;20.390;2023-07-13T08:17:03;23.67;;;7.43;;
55364;SDS011;41245;45.384;20.390;2023-07-13T08:19:30;32.45;;;8.00;;
55364;SDS011;41245;45.384;20.390;2023-07-13T08:21:56;23.00;;;8.32;;
55364;SDS011;41245;45.384;20.390;2023-07-13T08:24:23;20.00;;;7.30;;
55364;SDS011;41245;45.384;20.390;2023-07-13T08:26:50;29.95;;;7.10;;
55364;SDS011;41245;45.384;20.390;2023-07-13T08:29:17;23.73;;;7.45;;
55364;SDS011;41245;45.384;20.390;2023-07-13T08:31:43;19.10;;;6.47;;
55364;SDS011;41245;45.384;20.390;2023-07-13T08:34:10;14.10;;;6.00;;
55364;SDS011;41245;45.384;20.390;2023-07-13T08:36:36;25.98;;;6.25;;
55364;SDS011;41245;45.384;20.390;2023-07-13T08:39:02;18.95;;;5.97;;
55364;SDS011;41245;45.384;20.390;2023-07-13T08:41:28;16.33;;;5.45;;
55364;SDS011;41245;45.384;20.390;2023-07-13T08:43:56;22.13;;;6.88;;
55364;SDS011;41245;45.384;20.390;2023-07-13T08:48:59;23.85;;;5.82;;
55364;SDS011;41245;45.384;20.390;2023-07-13T08:51:32;22.42;;;6.03;;
55364;SDS011;41245;45.384;20.390;2023-07-13T08:54:01;17.63;;;6.03;;
55364;SDS011;41245;45.384;20.390;2023-07-13T08:56:28;16.92;;;5.53;;
55364;SDS011;41245;45.384;20.390;2023-07-13T08:59:00;25.27;;;6.85;;
55364;SDS011;41245;45.384;20.390;2023-07-13T09:04:09;14.48;;;6.05;;
55364;SDS011;41245;45.384;20.390;2023-07-13T09:07:41;20.85;;;5.28;;
55364;SDS011;41245;45.384;20.390;2023-07-13T09:09:51;17.00;;;7.80;;
55364;SDS011;41245;45.384;20.390;2023-07-13T09:14:53;27.85;;;6.93;;
55364;SDS011;41245;45.384;20.390;2023-07-13T09:17:45;18.67;;;6.10;;
55364;SDS011;41245;45.384;20.390;2023-07-13T09:22:36;21.17;;;6.05;;
55364;SDS011;41245;45.384;20.390;2023-07-13T09:27:48;27.10;;;5.72;;
55364;SDS011;41245;45.384;20.390;2023-07-13T09:32:45;19.38;;;5.57;;
55364;SDS011;41245;45.384;20.390;2023-07-13T09:35:20;13.23;;;5.93;;
55364;SDS011;41245;45.384;20.390;2023-07-13T09:37:47;28.60;;;6.78;;
55364;SDS011;41245;45.384;20.390;2023-07-13T09:42:57;21.98;;;6.18;;
55364;SDS011;41245;45.384;20.390;2023-07-13T09:45:28;16.00;;;6.03;;
55364;SDS011;41245;45.384;20.390;2023-07-13T09:48:04;18.60;;;4.90;;
55364;SDS011;41245;45.384;20.390;2023-07-13T09:50:30;22.73;;;5.68;;
55364;SDS011;41245;45.384;20.390;2023-07-13T09:52:56;20.42;;;6.13;;
55364;SDS011;41245;45.384;20.390;2023-07-13T09:57:57;20.23;;;5.75;;
55364;SDS011;41245;45.384;20.390;2023-07-13T10:00:27;18.98;;;5.78;;
55364;SDS011;41245;45.384;20.390;2023-07-13T10:03:00;20.02;;;5.70;;
55364;SDS011;41245;45.384;20.390;2023-07-13T10:05:28;13.73;;;5.35;;
55364;SDS011;41245;45.384;20.390;2023-07-13T10:08:02;17.58;;;6.05;;
55364;SDS011;41245;45.384;20.390;2023-07-13T10:10:32;24.45;;;5.60;;
55364;SDS011;41245;45.384;20.390;2023-07-13T10:13:00;17.63;;;5.72;;
55364;SDS011;41245;45.384;20.390;2023-07-13T10:15:29;14.17;;;6.17;;
55364;SDS011;41245;45.384;20.390;2023-07-13T10:17:55;29.67;;;6.88;;
55364;SDS011;41245;45.384;20.390;2023-07-13T10:20:23;9.80;;;5.03;;
55364;SDS011;41245;45.384;20.390;2023-07-13T10:25:27;15.70;;;5.72;;
55364;SDS011;41245;45.384;20.390;2023-07-13T10:27:56;17.95;;;6.10;;
55364;SDS011;41245;45.384;20.390;2023-07-13T10:30:25;25.88;;;6.60;;
55364;SDS011;41245;45.384;20.390;2023-07-13T10:32:57;22.08;;;5.53;;
55364;SDS011;41245;45.384;20.390;2023-07-13T10:35:24;17.92;;;5.00;;
55364;SDS011;41245;45.384;20.390;2023-07-13T10:37:56;27.05;;;5.88;;
55364;SDS011;41245;45.384;20.390;2023-07-13T10:40:27;22.67;;;5.07;;
55364;SDS011;41245;45.384;20.390;2023-07-13T10:42:55;19.90;;;6.75;;
55364;SDS011;41245;45.384;20.390;2023-07-13T10:45:23;32.70;;;7.15;;
55364;SDS011;41245;45.384;20.390;2023-07-13T10:47:50;26.33;;;6.45;;
55364;SDS011;41245;45.384;20.390;2023-07-13T10:50:21;16.13;;;7.20;;
55364;SDS011;41245;45.384;20.390;2023-07-13T10:52:48;26.17;;;5.60;;
55364;SDS011;41245;45.384;20.390;2023-07-13T10:55:31;14.55;;;5.10;;
55364;SDS011;41245;45.384;20.390;2023-07-13T10:58:40;23.30;;;6.07;;
55364;SDS011;41245;45.384;20.390;2023-07-13T11:01:03;18.85;;;5.80;;
55364;SDS011;41245;45.384;20.390;2023-07-13T11:03:29;14.88;;;5.53;;
55364;SDS011;41245;45.384;20.390;2023-07-13T11:08:35;30.10;;;5.63;;
55364;SDS011;41245;45.384;20.390;2023-07-13T11:11:02;20.13;;;6.23;;
55364;SDS011;41245;45.384;20.390;2023-07-13T11:14:14;12.85;;;5.43;;
55364;SDS011;41245;45.384;20.390;2023-07-13T11:18:51;13.95;;;5.72;;
55364;SDS011;41245;45.384;20.390;2023-07-13T11:21:18;17.35;;;5.10;;
55364;SDS011;41245;45.384;20.390;2023-07-13T11:23:51;17.85;;;6.72;;
55364;SDS011;41245;45.384;20.390;2023-07-13T11:29:08;21.17;;;5.63;;
55364;SDS011;41245;45.384;20.390;2023-07-13T11:31:34;15.27;;;5.57;;
55364;SDS011;41245;45.384;20.390;2023-07-13T11:34:00;16.02;;;5.20;;
55364;SDS011;41245;45.384;20.390;2023-07-13T11:36:30;18.98;;;5.82;;
55364;SDS011;41245;45.384;20.390;2023-07-13T11:42:00;13.70;;;5.25;;
55364;SDS011;41245;45.384;20.390;2023-07-13T11:44:28;21.30;;;5.30;;
55364;SDS011;41245;45.384;20.390;2023-07-13T11:46:59;20.10;;;4.88;;
55364;SDS011;41245;45.384;20.390;2023-07-13T11:49:26;15.45;;;5.22;;
55364;SDS011;41245;45.384;20.390;2023-07-13T11:51:52;27.02;;;7.53;;
55364;SDS011;41245;45.384;20.390;2023-07-13T11:54:22;13.70;;;4.88;;
55364;SDS011;41245;45.384;20.390;2023-07-13T11:56:49;15.00;;;5.15;;
55364;SDS011;41245;45.384;20.390;2023-07-13T11:59:15;16.15;;;5.85;;
55364;SDS011;41245;45.384;20.390;2023-07-13T12:01:47;22.00;;;6.28;;
55364;SDS011;41245;45.384;20.390;2023-07-13T12:04:32;23.60;;;5.65;;
55364;SDS011;41245;45.384;20.390;2023-07-13T12:07:04;17.00;;;5.60;;
55364;SDS011;41245;45.384;20.390;2023-07-13T12:09:30;17.40;;;5.20;;
55364;SDS011;41245;45.384;20.390;2023-07-13T12:11:56;16.70;;;5.00;;
55364;SDS011;41245;45.384;20.390;2023-07-13T12:14:26;16.25;;;6.07;;
55364;SDS011;41245;45.384;20.390;2023-07-13T12:16:52;21.40;;;5.63;;
55364;SDS011;41245;45.384;20.390;2023-07-13T12:19:23;14.32;;;4.65;;
55364;SDS011;41245;45.384;20.390;2023-07-13T12:21:52;16.10;;;5.15;;
55364;SDS011;41245;45.384;20.390;2023-07-13T12:24:20;18.42;;;4.95;;
55364;SDS011;41245;45.384;20.390;2023-07-13T12:29:15;17.85;;;5.05;;
55364;SDS011;41245;45.384;20.390;2023-07-13T12:31:43;16.73;;;5.28;;
55364;SDS011;41245;45.384;20.390;2023-07-13T12:34:11;19.60;;;6.03;;
55364;SDS011;41245;45.384;20.390;2023-07-13T12:36:38;16.65;;;4.63;;
55364;SDS011;41245;45.384;20.390;2023-07-13T12:41:51;16.95;;;4.50;;
55364;SDS011;41245;45.384;20.390;2023-07-13T12:44:25;14.27;;;5.60;;
55364;SDS011;41245;45.384;20.390;2023-07-13T12:46:53;17.63;;;4.90;;
55364;SDS011;41245;45.384;20.390;2023-07-13T12:49:22;14.30;;;5.55;;
55364;SDS011;41245;45.384;20.390;2023-07-13T12:51:55;14.90;;;4.82;;
55364;SDS011;41245;45.384;20.390;2023-07-13T12:54:22;17.75;;;4.60;;
55364;SDS011;41245;45.384;20.390;2023-07-13T12:56:49;15.15;;;4.75;;
55364;SDS011;41245;45.384;20.390;2023-07-13T12:59:21;15.27;;;4.65;;
55364;SDS011;41245;45.384;20.390;2023-07-13T13:01:48;17.65;;;4.78;;
55364;SDS011;41245;45.384;20.390;2023-07-13T13:04:15;21.92;;;5.22;;
55364;SDS011;41245;45.384;20.390;2023-07-13T13:06:42;17.60;;;4.82;;
55364;SDS011;41245;45.384;20.390;2023-07-13T13:09:15;23.05;;;5.53;;
55364;SDS011;41245;45.384;20.390;2023-07-13T13:11:41;20.88;;;4.95;;
55364;SDS011;41245;45.384;20.390;2023-07-13T13:14:07;18.67;;;4.97;;
55364;SDS011;41245;45.384;20.390;2023-07-13T13:19:21;12.60;;;4.75;;
55364;SDS011;41245;45.384;20.390;2023-07-13T13:21:49;13.35;;;4.88;;
55364;SDS011;41245;45.384;20.390;2023-07-13T13:24:19;18.90;;;4.78;;
55364;SDS011;41245;45.384;20.390;2023-07-13T13:26:46;18.40;;;5.32;;
55364;SDS011;41245;45.384;20.390;2023-07-13T13:29:15;14.98;;;4.82;;
55364;SDS011;41245;45.384;20.390;2023-07-13T13:31:42;15.63;;;4.80;;
55364;SDS011;41245;45.384;20.390;2023-07-13T13:34:12;24.08;;;5.30;;
55364;SDS011;41245;45.384;20.390;2023-07-13T13:36:39;20.23;;;5.07;;
55364;SDS011;41245;45.384;20.390;2023-07-13T13:39:10;20.50;;;5.30;;
55364;SDS011;41245;45.384;20.390;2023-07-13T13:41:37;20.17;;;4.53;;
55364;SDS011;41245;45.384;20.390;2023-07-13T13:44:04;19.00;;;5.10;;
55364;SDS011;41245;45.384;20.390;2023-07-13T13:46:30;18.45;;;4.60;;
55364;SDS011;41245;45.384;20.390;2023-07-13T13:48:56;11.25;;;3.60;;
55364;SDS011;41245;45.384;20.390;2023-07-13T13:51:23;34.08;;;3.88;;
55364;SDS011;41245;45.384;20.390;2023-07-13T13:53:50;13.88;;;4.07;;
55364;SDS011;41245;45.384;20.390;2023-07-13T13:56:17;16.88;;;3.85;;
55364;SDS011;41245;45.384;20.390;2023-07-13T13:58:43;14.63;;;4.70;;
55364;SDS011;41245;45.384;20.390;2023-07-13T14:01:12;18.60;;;4.10;;
55364;SDS011;41245;45.384;20.390;2023-07-13T14:03:39;11.40;;;4.32;;
55364;SDS011;41245;45.384;20.390;2023-07-13T14:06:07;14.32;;;4.80;;
55364;SDS011;41245;45.384;20.390;2023-07-13T14:08:33;11.98;;;3.75;;
55364;SDS011;41245;45.384;20.390;2023-07-13T14:10:59;16.65;;;3.97;;
55364;SDS011;41245;45.384;20.390;2023-07-13T14:13:27;19.83;;;4.10;;
55364;SDS011;41245;45.384;20.390;2023-07-13T14:15:54;9.10;;;4.00;;
55364;SDS011;41245;45.384;20.390;2023-07-13T14:18:20;17.25;;;3.80;;
55364;SDS011;41245;45.384;20.390;2023-07-13T14:20:46;10.10;;;2.70;;
55364;SDS011;41245;45.384;20.390;2023-07-13T14:23:13;11.43;;;3.03;;
55364;SDS011;41245;45.384;20.390;2023-07-13T14:25:40;18.90;;;4.07;;
55364;SDS011;41245;45.384;20.390;2023-07-13T14:28:40;14.52;;;3.63;;
55364;SDS011;41245;45.384;20.390;2023-07-13T14:30:58;12.57;;;3.78;;
55364;SDS011;41245;45.384;20.390;2023-07-13T14:33:24;8.05;;;3.70;;
55364;SDS011;41245;45.384;20.390;2023-07-13T14:35:50;14.10;;;3.55;;
55364;SDS011;41245;45.384;20.390;2023-07-13T14:38:17;15.43;;;4.00;;
55364;SDS011;41245;45.384;20.390;2023-07-13T14:40:44;11.68;;;3.70;;
55364;SDS011;41245;45.384;20.390;2023-07-13T14:43:12;9.73;;;3.38;;
55364;SDS011;41245;45.384;20.390;2023-07-13T14:45:42;7.28;;;2.95;;
55364;SDS011;41245;45.384;20.390;2023-07-13T14:48:12;11.50;;;3.83;;
55364;SDS011;41245;45.384;20.390;2023-07-13T14:50:40;16.83;;;3.53;;
55364;SDS011;41245;45.384;20.390;2023-07-13T14:53:09;12.68;;;4.47;;
55364;SDS011;41245;45.384;20.390;2023-07-13T14:55:35;10.70;;;6.30;;
55364;SDS011;41245;45.384;20.390;2023-07-13T14:58:01;13.27;;;4.45;;
55364;SDS011;41245;45.384;20.390;2023-07-13T15:00:27;16.60;;;3.55;;
55364;SDS011;41245;45.384;20.390;2023-07-13T15:02:55;22.73;;;4.07;;
55364;SDS011;41245;45.384;20.390;2023-07-13T15:05:26;10.80;;;3.67;;
55364;SDS011;41245;45.384;20.390;2023-07-13T15:07:56;13.65;;;3.63;;